Time;durP1;ratioP1;P1;durP2;ratioP2;P2;SDS_P1;SDS_P2;PMS_P1;PMS_P2;Temp;Humidity;BMP_temperature;BMP_pressure;BME280_temperature;BME280_humidity;BME280_pressure;Samples;Min_cycle;Max_cycle;Signal;HPM_P1;HPM_P2
2022/07/03 00:01:32;;;;;;;0.70;0.20;;;22.70;99.90;;;;;;4956285;29;20451;-71
2022/07/03 00:03:59;;;;;;;0.70;0.10;;;22.70;99.90;;;;;;4956362;28;20443;-71
2022/07/03 00:06:30;;;;;;;0.70;0.20;;;22.70;99.90;;;;;;4955460;28;20582;-71
2022/07/03 00:08:58;;;;;;;0.70;0.10;;;22.70;99.90;;;;;;4956361;29;20447;-73
2022/07/03 00:11:27;;;;;;;0.70;0.10;;;22.70;99.90;;;;;;4956278;29;20446;-72
2022/07/03 00:13:56;;;;;;;0.70;0.10;;;22.60;99.90;;;;;;4955917;29;20454;-72
2022/07/03 00:16:24;;;;;;;0.70;0.10;;;22.60;99.90;;;;;;4955037;29;20463;-73
2022/07/03 00:18:52;;;;;;;0.70;0.20;;;22.60;99.90;;;;;;4955832;29;20451;-73
2022/07/03 00:21:23;;;;;;;0.70;0.10;;;22.60;99.90;;;;;;4964542;28;20450;-71
2022/07/03 00:23:56;;;;;;;0.70;0.20;;;22.60;99.90;;;;;;4974996;28;20452;-72
2022/07/03 00:26:26;;;;;;;0.70;0.10;;;22.60;99.90;;;;;;4974286;28;20513;-72
2022/07/03 00:29:00;;;;;;;0.70;0.20;;;22.60;99.90;;;;;;4958872;28;20481;-72
2022/07/03 00:31:30;;;;;;;0.70;0.20;;;22.50;99.90;;;;;;4955768;29;20545;-71
2022/07/03 00:33:59;;;;;;;1.00;0.50;;;22.50;99.90;;;;;;4955445;29;20451;-72
2022/07/03 00:36:30;;;;;;;0.70;0.20;;;22.40;99.90;;;;;;4956250;28;20474;-71
2022/07/03 00:38:57;;;;;;;0.70;0.20;;;22.40;99.90;;;;;;4974582;28;20525;-71
2022/07/03 00:41:28;;;;;;;0.70;0.10;;;22.40;99.90;;;;;;4975074;28;20446;-72
2022/07/03 00:43:57;;;;;;;0.70;0.20;;;22.30;99.90;;;;;;4974709;28;20442;-71
2022/07/03 00:46:27;;;;;;;0.70;0.10;;;22.30;99.90;;;;;;4974061;28;20490;-71
2022/07/03 00:48:57;;;;;;;0.70;0.10;;;22.20;99.90;;;;;;4974406;28;20450;-71
2022/07/03 00:51:26;;;;;;;0.70;0.10;;;22.20;99.90;;;;;;4965512;28;20455;-72
2022/07/03 00:53:56;;;;;;;0.70;0.10;;;22.20;99.90;;;;;;4955192;29;20454;-73
2022/07/03 00:56:26;;;;;;;0.70;0.20;;;22.00;99.90;;;;;;4954285;29;20973;-72
2022/07/03 00:58:57;;;;;;;0.70;0.13;;;22.00;99.90;;;;;;4954976;29;20938;-73
2022/07/03 01:01:29;;;;;;;0.70;0.20;;;22.00;99.90;;;;;;4954482;28;20450;-73
2022/07/03 01:04:08;;;;;;;0.70;0.13;;;22.00;99.90;;;;;;4955415;29;20447;-73
2022/07/03 01:06:45;;;;;;;0.70;0.20;;;21.80;99.90;;;;;;4973054;28;20485;-73
2022/07/03 01:09:13;;;;;;;0.70;0.20;;;21.80;99.90;;;;;;4975100;28;20450;-72
2022/07/03 01:11:49;;;;;;;0.70;0.20;;;21.70;99.90;;;;;;4974492;28;21049;-71
2022/07/03 01:14:28;;;;;;;0.70;0.20;;;21.60;99.90;;;;;;4974191;28;20446;-71
2022/07/03 01:16:59;;;;;;;0.70;0.10;;;21.50;99.90;;;;;;4973600;28;20549;-71
2022/07/03 01:19:37;;;;;;;0.70;0.10;;;21.50;99.90;;;;;;4965471;28;20455;-72
2022/07/03 01:22:27;;;;;;;0.70;0.13;;;21.50;99.90;;;;;;4954826;29;20448;-72
2022/07/03 01:25:17;;;;;;;0.70;0.10;;;21.50;99.90;;;;;;4954399;29;20447;-72
2022/07/03 01:27:58;;;;;;;0.70;0.10;;;21.50;99.90;;;;;;4951847;29;20572;-72
2022/07/03 01:30:28;;;;;;;0.70;0.20;;;21.50;99.90;;;;;;4954789;29;20446;-72
2022/07/03 01:33:00;;;;;;;0.70;0.10;;;21.50;99.90;;;;;;4958674;28;20446;-72
2022/07/03 01:35:33;;;;;;;1.80;1.70;;;21.40;99.90;;;;;;4973441;28;20466;-72
2022/07/03 01:38:04;;;;;;;0.70;0.10;;;21.50;99.90;;;;;;4973601;28;20459;-71
2022/07/03 01:40:34;;;;;;;0.70;0.30;;;21.40;99.90;;;;;;4973904;28;20449;-71
2022/07/03 01:43:05;;;;;;;0.70;0.20;;;21.40;99.90;;;;;;4973767;28;20456;-71
2022/07/03 01:45:38;;;;;;;0.70;0.10;;;21.40;99.90;;;;;;4973727;28;20450;-71
2022/07/03 01:48:08;;;;;;;0.70;0.10;;;21.40;99.90;;;;;;4960710;28;20493;-71
2022/07/03 01:50:37;;;;;;;0.70;0.30;;;21.50;99.90;;;;;;4955420;29;20799;-72
2022/07/03 01:53:09;;;;;;;1.03;0.30;;;21.50;99.90;;;;;;4954896;29;20471;-72
2022/07/03 01:55:40;;;;;;;0.70;0.20;;;21.50;99.90;;;;;;4954540;29;20549;-72
2022/07/03 01:58:10;;;;;;;0.70;0.10;;;21.50;99.90;;;;;;4954008;29;20555;-72
2022/07/03 02:00:42;;;;;;;4.23;3.93;;;21.50;99.90;;;;;;4955676;28;20461;-71
2022/07/03 02:03:10;;;;;;;0.70;0.10;;;21.50;99.90;;;;;;4964406;28;20534;-72
2022/07/03 02:05:43;;;;;;;0.70;0.10;;;21.50;99.90;;;;;;4953980;29;20712;-71
2022/07/03 02:08:34;;;;;;;0.70;0.10;;;21.40;99.90;;;;;;4953704;28;20498;-72
2022/07/03 02:11:10;;;;;;;5.10;4.37;;;21.40;99.90;;;;;;4954040;29;20462;-72
2022/07/03 02:13:51;;;;;;;0.70;0.30;;;21.40;99.90;;;;;;4954024;28;20825;-72
2022/07/03 02:16:23;;;;;;;0.70;0.20;;;21.30;99.90;;;;;;4955348;28;20481;-71
2022/07/03 02:18:58;;;;;;;0.70;0.20;;;21.20;99.90;;;;;;4972943;28;20442;-71
2022/07/03 02:21:29;;;;;;;0.70;0.13;;;21.20;99.90;;;;;;4973083;28;20444;-71
2022/07/03 02:24:07;;;;;;;0.70;0.10;;;21.10;99.90;;;;;;4973368;28;20454;-71
2022/07/03 02:26:41;;;;;;;0.70;0.13;;;21.00;99.90;;;;;;4972767;28;20501;-73
2022/07/03 02:29:15;;;;;;;0.70;0.10;;;21.00;99.90;;;;;;4955015;28;20815;-72
2022/07/03 02:31:45;;;;;;;0.70;0.20;;;21.10;99.90;;;;;;4966663;28;20477;-72
2022/07/03 02:34:16;;;;;;;0.70;0.20;;;21.10;99.90;;;;;;4973035;28;20470;-72
2022/07/03 02:36:47;;;;;;;0.70;0.20;;;21.10;99.90;;;;;;4972786;28;20466;-72
2022/07/03 02:39:30;;;;;;;0.70;0.10;;;21.10;99.90;;;;;;4972896;28;20457;-72
2022/07/03 02:42:01;;;;;;;0.70;0.20;;;21.10;99.90;;;;;;4972778;28;20437;-72
2022/07/03 02:44:37;;;;;;;0.70;0.10;;;21.00;99.90;;;;;;4969505;28;20455;-72
2022/07/03 02:47:15;;;;;;;0.70;0.17;;;21.10;99.90;;;;;;4953335;29;20489;-72
2022/07/03 02:49:51;;;;;;;0.70;0.10;;;21.00;99.90;;;;;;4953793;29;20446;-72
2022/07/03 02:52:27;;;;;;;0.70;0.10;;;21.00;99.90;;;;;;4953620;29;20450;-72
2022/07/03 02:54:58;;;;;;;0.70;0.10;;;21.00;99.90;;;;;;4954113;28;20443;-72
2022/07/03 02:57:37;;;;;;;0.70;0.10;;;21.00;99.90;;;;;;4972357;28;20462;-72
2022/07/03 03:00:09;;;;;;;0.70;0.20;;;21.00;99.90;;;;;;4972728;28;20442;-72
2022/07/03 03:02:58;;;;;;;0.70;0.13;;;21.00;99.90;;;;;;4955981;28;20448;-71
2022/07/03 03:05:35;;;;;;;0.70;0.17;;;20.90;99.90;;;;;;4931241;29;20478;-73
2022/07/03 03:08:12;;;;;;;0.70;0.10;;;20.90;99.90;;;;;;4934000;29;20501;-70
2022/07/03 03:10:41;;;;;;;0.70;0.10;;;20.90;99.90;;;;;;4961128;28;20460;-73
2022/07/03 03:13:11;;;;;;;0.70;0.10;;;20.80;99.90;;;;;;4973036;28;20442;-72
2022/07/03 03:15:48;;;;;;;0.70;0.20;;;20.80;99.90;;;;;;4973459;28;20446;-70
2022/07/03 03:18:22;;;;;;;0.80;0.50;;;20.70;99.90;;;;;;4972283;28;20469;-71
2022/07/03 03:20:55;;;;;;;0.70;0.20;;;20.80;99.90;;;;;;4972676;28;20856;-71
2022/07/03 03:23:35;;;;;;;0.70;0.10;;;20.70;99.90;;;;;;4969501;28;20817;-72
2022/07/03 03:26:03;;;;;;;0.70;0.20;;;20.70;99.90;;;;;;4957190;29;20450;-72
2022/07/03 03:28:31;;;;;;;0.70;0.20;;;20.70;99.90;;;;;;4957182;29;20573;-72
2022/07/03 03:31:01;;;;;;;0.70;0.20;;;20.60;99.90;;;;;;4957044;29;20451;-71
2022/07/03 03:33:29;;;;;;;0.70;0.10;;;20.40;99.90;;;;;;4957108;29;20447;-71
2022/07/03 03:35:57;;;;;;;0.70;0.10;;;20.30;99.90;;;;;;4956461;29;20941;-71
2022/07/03 03:38:25;;;;;;;0.70;0.10;;;20.20;99.90;;;;;;4956885;28;20828;-72
2022/07/03 03:40:53;;;;;;;0.70;0.10;;;20.30;99.90;;;;;;4956746;29;20454;-71
2022/07/03 03:43:21;;;;;;;0.70;0.10;;;20.20;99.90;;;;;;4956882;29;20454;-72
2022/07/03 03:45:49;;;;;;;0.70;0.10;;;20.30;99.90;;;;;;4956461;29;20454;-71
2022/07/03 03:48:18;;;;;;;0.70;0.13;;;20.30;99.90;;;;;;4956161;29;20486;-71
2022/07/03 03:50:46;;;;;;;0.70;0.10;;;20.40;99.90;;;;;;4956362;29;20454;-71
2022/07/03 03:53:16;;;;;;;0.70;0.20;;;20.40;99.90;;;;;;4973090;28;20454;-71
2022/07/03 03:55:54;;;;;;;0.70;0.10;;;20.50;99.90;;;;;;4975721;28;20445;-71
2022/07/03 03:58:21;;;;;;;0.70;0.20;;;20.50;99.90;;;;;;4975410;28;20440;-71
2022/07/03 04:00:49;;;;;;;0.70;0.10;;;20.60;99.90;;;;;;4975600;28;20450;-71
2022/07/03 04:03:18;;;;;;;0.70;0.20;;;20.50;99.90;;;;;;4975532;28;20545;-71
2022/07/03 04:05:46;;;;;;;0.70;0.20;;;20.50;99.90;;;;;;4970166;28;20799;-71
2022/07/03 04:08:14;;;;;;;0.70;0.10;;;20.50;99.90;;;;;;4955494;29;20502;-71
2022/07/03 04:10:42;;;;;;;0.70;0.20;;;20.50;99.90;;;;;;4956353;28;20963;-71
2022/07/03 04:13:10;;;;;;;0.70;0.10;;;19.30;99.90;;;;;;4956421;29;20506;-72
2022/07/03 04:15:38;;;;;;;0.70;0.10;;;20.50;99.90;;;;;;4955916;29;20457;-72
2022/07/03 04:18:06;;;;;;;0.70;0.10;;;20.60;99.90;;;;;;4955671;29;20973;-71
2022/07/03 04:20:35;;;;;;;0.70;0.10;;;20.70;99.90;;;;;;4967159;28;20446;-72
2022/07/03 04:23:03;;;;;;;0.70;0.10;;;20.70;99.90;;;;;;4975308;28;20816;-71
2022/07/03 04:25:31;;;;;;;0.70;0.13;;;20.70;99.90;;;;;;4975077;28;20458;-71
2022/07/03 04:28:00;;;;;;;0.70;0.20;;;20.80;99.90;;;;;;4965885;28;20497;-72
2022/07/03 04:30:48;;;;;;;0.70;0.10;;;20.80;99.90;;;;;;4955709;29;20484;-71
2022/07/03 04:33:16;;;;;;;0.70;0.10;;;20.90;99.90;;;;;;4955873;28;20454;-72
2022/07/03 04:35:46;;;;;;;0.70;0.10;;;20.90;99.90;;;;;;4972805;28;20450;-71
2022/07/03 04:38:13;;;;;;;0.70;0.10;;;21.00;99.90;;;;;;4974872;28;20462;-70
2022/07/03 04:40:41;;;;;;;0.70;0.10;;;21.00;99.90;;;;;;4975011;28;20450;-71
2022/07/03 04:43:09;;;;;;;0.70;0.10;;;21.00;99.90;;;;;;4975870;28;20446;-71
2022/07/03 04:45:37;;;;;;;0.70;0.20;;;21.00;99.90;;;;;;4975738;28;20813;-72
2022/07/03 04:48:05;;;;;;;0.70;0.20;;;21.10;99.90;;;;;;4975286;28;20560;-72
2022/07/03 04:50:33;;;;;;;0.70;0.10;;;21.10;99.90;;;;;;4975584;28;20442;-71
2022/07/03 04:53:03;;;;;;;0.70;0.20;;;21.10;99.90;;;;;;4975653;28;20533;-71
2022/07/03 04:55:30;;;;;;;0.70;0.20;;;21.00;99.90;;;;;;4975994;28;20960;-72
2022/07/03 04:57:58;;;;;;;0.70;0.10;;;20.90;99.90;;;;;;4976187;28;20469;-72
2022/07/03 05:00:26;;;;;;;0.70;0.20;;;20.90;99.90;;;;;;4977524;28;20450;-72
2022/07/03 05:02:54;;;;;;;0.70;0.10;;;20.90;99.90;;;;;;4961783;28;20455;-72
2022/07/03 05:05:22;;;;;;;0.70;0.10;;;20.90;99.90;;;;;;4955204;29;20438;-71
2022/07/03 05:07:50;;;;;;;0.70;0.10;;;20.90;99.90;;;;;;4954624;29;20475;-71
2022/07/03 05:10:19;;;;;;;0.70;0.20;;;20.90;99.90;;;;;;4955415;29;20536;-71
2022/07/03 05:12:47;;;;;;;0.70;0.20;;;20.90;99.90;;;;;;4967404;28;20453;-71
2022/07/03 05:15:15;;;;;;;0.70;0.10;;;20.90;99.90;;;;;;4974414;28;20465;-72
2022/07/03 05:17:43;;;;;;;0.70;0.17;;;21.00;99.90;;;;;;4973887;28;20675;-73
2022/07/03 05:20:24;;;;;;;0.70;0.10;;;21.00;99.90;;;;;;4974311;28;20457;-71
2022/07/03 05:22:52;;;;;;;0.70;0.10;;;21.10;99.90;;;;;;4974661;28;20553;-71
2022/07/03 05:25:22;;;;;;;0.70;0.17;;;21.10;99.90;;;;;;4973236;28;20442;-71
2022/07/03 05:27:52;;;;;;;0.70;0.10;;;21.20;99.90;;;;;;4954264;29;20470;-71
2022/07/03 05:30:21;;;;;;;0.70;0.10;;;21.20;99.90;;;;;;4954935;29;20446;-73
2022/07/03 05:32:49;;;;;;;0.70;0.20;;;21.30;99.90;;;;;;4954738;29;20930;-71
2022/07/03 05:35:17;;;;;;;0.70;0.10;;;21.30;99.90;;;;;;4954474;29;20458;-71
2022/07/03 05:37:45;;;;;;;0.70;0.10;;;21.40;99.90;;;;;;4954083;29;20553;-72
2022/07/03 05:40:12;;;;;;;0.70;0.10;;;21.50;99.90;;;;;;4961916;28;20457;-72
2022/07/03 05:42:41;;;;;;;0.70;0.17;;;21.50;99.90;;;;;;4973983;28;20793;-71
2022/07/03 05:45:10;;;;;;;0.70;0.20;;;21.50;99.90;;;;;;4973610;28;20461;-72
2022/07/03 05:47:38;;;;;;;0.70;0.20;;;21.60;99.90;;;;;;4973120;28;20485;-73
2022/07/03 05:50:07;;;;;;;0.70;0.10;;;21.60;99.90;;;;;;4973612;28;20566;-71
2022/07/03 05:52:35;;;;;;;0.70;0.20;;;21.70;99.90;;;;;;4968592;28;20541;-72
2022/07/03 05:55:04;;;;;;;0.70;0.20;;;21.70;99.90;;;;;;4954055;28;20451;-72
2022/07/03 05:57:32;;;;;;;0.70;0.20;;;21.70;99.90;;;;;;4953408;29;20968;-72
2022/07/03 06:00:02;;;;;;;0.70;0.10;;;21.70;99.90;;;;;;4954148;29;20439;-72
2022/07/03 06:02:30;;;;;;;0.70;0.10;;;21.80;99.90;;;;;;4954424;29;20454;-72
2022/07/03 06:04:58;;;;;;;0.70;0.10;;;21.80;99.90;;;;;;4954003;29;20469;-72
2022/07/03 06:07:25;;;;;;;0.70;0.40;;;21.90;99.90;;;;;;4957933;28;20974;-72
2022/07/03 06:09:53;;;;;;;0.80;0.40;;;21.90;99.90;;;;;;4971226;28;20478;-72
2022/07/03 06:12:21;;;;;;;0.70;0.17;;;21.90;99.90;;;;;;4959489;28;20877;-71
2022/07/03 06:14:49;;;;;;;0.70;0.10;;;22.00;99.90;;;;;;4952560;28;20455;-72
2022/07/03 06:17:19;;;;;;;0.70;0.20;;;22.00;99.90;;;;;;4934580;29;20460;-73
2022/07/03 06:19:47;;;;;;;0.70;0.10;;;22.10;99.90;;;;;;4934961;29;20450;-71
2022/07/03 06:22:15;;;;;;;0.70;0.10;;;22.10;99.90;;;;;;4934751;29;20496;-71
2022/07/03 06:24:43;;;;;;;0.70;0.20;;;22.20;99.90;;;;;;4934323;29;20460;-72
2022/07/03 06:27:11;;;;;;;0.70;0.20;;;;;;;;;;4936431;29;20479;-71
2022/07/03 06:29:39;;;;;;;0.70;0.10;;;22.30;99.90;;;;;;4954892;28;20475;-71
2022/07/03 06:32:08;;;;;;;0.70;0.20;;;;;;;;;;4953994;28;20456;-72
2022/07/03 06:34:37;;;;;;;0.70;0.20;;;22.50;99.90;;;;;;4953728;29;20450;-72
2022/07/03 06:37:05;;;;;;;1.10;0.70;;;22.50;99.90;;;;;;4953290;29;20466;-72
2022/07/03 06:39:33;;;;;;;0.70;0.27;;;22.40;99.90;;;;;;4953685;29;20442;-72
2022/07/03 06:42:01;;;;;;;0.70;0.20;;;22.50;99.90;;;;;;4953677;29;20530;-72
2022/07/03 06:44:28;;;;;;;2.50;1.13;;;22.40;99.90;;;;;;4953917;29;20451;-73
2022/07/03 06:46:57;;;;;;;0.70;0.20;;;22.40;99.90;;;;;;4954256;28;20475;-72
2022/07/03 06:49:25;;;;;;;0.70;0.10;;;22.40;99.90;;;;;;4953570;29;20805;-73
2022/07/03 06:51:54;;;;;;;1.00;0.87;;;22.40;99.90;;;;;;4953855;29;20482;-72
2022/07/03 06:54:22;;;;;;;0.70;0.20;;;22.50;99.90;;;;;;4953589;29;20916;-72
2022/07/03 06:56:50;;;;;;;0.70;0.20;;;22.60;99.90;;;;;;4953477;29;20463;-71
2022/07/03 06:59:18;;;;;;;0.70;0.10;;;22.60;99.90;;;;;;4955204;28;20534;-72
2022/07/03 07:01:46;;;;;;;2.10;0.67;;;22.70;99.90;;;;;;4957612;29;20532;-72
2022/07/03 07:04:14;;;;;;;0.70;0.20;;;22.80;99.90;;;;;;4958486;28;20968;-75
2022/07/03 07:06:42;;;;;;;0.70;0.20;;;22.80;99.90;;;;;;4956788;29;20486;-72
2022/07/03 07:09:11;;;;;;;0.70;0.23;;;22.80;99.90;;;;;;4957572;29;20489;-72
2022/07/03 07:11:39;;;;;;;0.70;0.10;;;22.80;99.90;;;;;;4957298;29;20934;-72
2022/07/03 07:14:07;;;;;;;0.80;0.40;;;22.70;99.90;;;;;;4957502;29;20551;-72
2022/07/03 07:16:35;;;;;;;0.70;0.10;;;22.70;99.90;;;;;;4956831;29;20562;-72
2022/07/03 07:19:03;;;;;;;1.53;1.43;;;22.60;99.90;;;;;;4960859;28;20800;-72
2022/07/03 07:21:31;;;;;;;0.70;0.10;;;22.60;99.90;;;;;;4976310;28;20529;-72
2022/07/03 07:23:59;;;;;;;0.70;0.10;;;22.60;99.90;;;;;;4976713;28;20453;-72
2022/07/03 07:26:28;;;;;;;0.70;0.10;;;22.70;99.90;;;;;;4975792;28;20470;-71
2022/07/03 07:28:56;;;;;;;0.70;0.10;;;22.80;99.90;;;;;;4960081;28;20525;-73
2022/07/03 07:31:24;;;;;;;0.70;0.10;;;22.80;99.90;;;;;;4957526;29;20443;-72
2022/07/03 07:33:52;;;;;;;0.70;0.20;;;22.90;99.90;;;;;;4956915;29;20882;-73
2022/07/03 07:36:20;;;;;;;0.70;0.13;;;23.00;99.90;;;;;;4967265;28;20568;-73
2022/07/03 07:38:48;;;;;;;0.70;0.17;;;23.00;99.90;;;;;;4975882;28;20488;-72
2022/07/03 07:41:16;;;;;;;0.80;0.30;;;23.10;99.90;;;;;;4976061;28;21240;-72
2022/07/03 07:43:48;;;;;;;0.70;0.17;;;23.10;99.90;;;;;;4975919;28;20457;-71
2022/07/03 07:46:16;;;;;;;0.70;0.13;;;23.20;99.90;;;;;;4975692;28;20586;-72
2022/07/03 07:48:44;;;;;;;2.07;1.47;;;23.30;99.90;;;;;;4976068;28;20516;-73
2022/07/03 07:51:12;;;;;;;0.70;0.20;;;23.30;99.90;;;;;;4976124;28;20496;-73
2022/07/03 07:53:40;;;;;;;0.70;0.20;;;23.40;99.90;;;;;;4974564;28;20482;-73
2022/07/03 07:56:13;;;;;;;0.90;0.30;;;23.40;99.90;;;;;;4975982;28;21799;-72
2022/07/03 07:58:41;;;;;;;0.70;0.13;;;23.40;99.90;;;;;;4976907;28;20450;-73
2022/07/03 08:06:38;;;;;;;0.70;0.20;;;23.60;99.90;;;;;;4942906;28;20497;-72
2022/07/03 08:09:06;;;;;;;0.70;0.20;;;23.60;99.90;;;;;;4964545;28;20458;-73
2022/07/03 08:11:34;;;;;;;0.70;0.10;;;23.80;99.90;;;;;;4956151;28;20566;-72
2022/07/03 08:14:04;;;;;;;0.70;0.10;;;23.80;99.90;;;;;;4950785;29;20471;-72
2022/07/03 08:16:34;;;;;;;0.70;0.10;;;21.70;99.90;;;;;;4955741;29;20497;-73
2022/07/03 08:19:02;;;;;;;0.70;0.10;;;;;;;;;;4955620;29;20455;-72
2022/07/03 08:21:30;;;;;;;2.07;1.07;;;24.10;99.90;;;;;;4955622;29;20968;-72
2022/07/03 08:23:58;;;;;;;0.70;0.10;;;24.10;99.90;;;;;;4955786;28;20975;-72
2022/07/03 08:26:26;;;;;;;0.70;0.20;;;24.20;99.90;;;;;;4955300;28;20490;-73
2022/07/03 08:28:56;;;;;;;1.47;0.40;;;22.20;99.90;;;;;;4955635;29;20526;-74
2022/07/03 08:31:24;;;;;;;0.70;0.20;;;24.30;99.90;;;;;;4956162;29;20486;-72
2022/07/03 08:33:53;;;;;;;0.70;0.10;;;24.40;99.90;;;;;;4955858;29;20525;-72
2022/07/03 08:36:22;;;;;;;0.70;0.20;;;24.50;99.90;;;;;;4954976;29;20501;-71
2022/07/03 08:38:49;;;;;;;0.70;0.10;;;24.50;99.90;;;;;;4955654;29;21010;-75
2022/07/03 08:41:19;;;;;;;0.70;0.20;;;24.60;99.90;;;;;;4956699;28;20458;-73
2022/07/03 08:43:50;;;;;;;0.70;0.10;;;24.60;99.90;;;;;;4955670;29;20447;-73
2022/07/03 08:46:20;;;;;;;0.70;0.13;;;24.70;99.90;;;;;;4954955;29;20463;-74
2022/07/03 08:48:50;;;;;;;0.70;0.20;;;24.70;99.90;;;;;;4955127;29;20451;-72
2022/07/03 08:51:20;;;;;;;0.70;0.20;;;24.70;99.90;;;;;;4955249;29;20902;-73
2022/07/03 08:53:48;;;;;;;0.80;0.50;;;24.80;99.90;;;;;;4955535;29;20538;-73
2022/07/03 08:56:16;;;;;;;0.70;0.20;;;24.90;99.90;;;;;;4954507;29;20475;-73
2022/07/03 08:58:44;;;;;;;0.70;0.20;;;24.80;99.90;;;;;;4965940;28;20821;-74
2022/07/03 09:01:16;;;;;;;0.70;0.20;;;24.90;99.90;;;;;;4974647;28;20445;-73
2022/07/03 09:03:46;;;;;;;0.70;0.20;;;;;;;;;;4974461;28;20445;-73
2022/07/03 09:06:14;;;;;;;0.70;0.17;;;25.10;99.90;;;;;;4973656;28;20654;-73
2022/07/03 09:08:45;;;;;;;0.70;0.20;;;;;;;;;;4974946;28;20462;-72
2022/07/03 09:11:12;;;;;;;0.70;0.10;;;25.20;99.90;;;;;;4963294;28;20485;-73
2022/07/03 09:13:40;;;;;;;1.00;0.20;;;25.30;99.90;;;;;;4954807;29;20447;-73
2022/07/03 09:16:16;;;;;;;0.70;0.17;;;25.50;99.90;;;;;;4954292;29;20462;-72
2022/07/03 09:18:46;;;;;;;1.70;0.60;;;25.50;99.90;;;;;;4954514;29;20937;-72
2022/07/03 09:21:14;;;;;;;4.30;1.23;;;25.40;99.90;;;;;;4954818;28;20565;-72
2022/07/03 09:23:45;;;;;;;0.70;0.20;;;25.60;99.90;;;;;;4954161;29;20439;-73
2022/07/03 09:26:15;;;;;;;0.80;0.20;;;25.70;99.90;;;;;;4971235;28;20945;-72
2022/07/03 09:28:50;;;;;;;0.70;0.10;;;25.60;99.90;;;;;;4959684;28;20450;-72
2022/07/03 09:31:20;;;;;;;0.70;0.13;;;25.70;99.90;;;;;;4954606;29;20490;-72
2022/07/03 09:33:53;;;;;;;0.70;0.20;;;25.80;99.90;;;;;;4964056;28;20488;-73
2022/07/03 09:36:23;;;;;;;0.80;0.23;;;26.00;99.90;;;;;;4973091;28;20549;-73
2022/07/03 09:38:52;;;;;;;0.70;0.10;;;26.00;99.90;;;;;;4973868;28;20575;-72
2022/07/03 09:41:20;;;;;;;0.70;0.10;;;26.10;99.90;;;;;;4966384;28;20451;-73
2022/07/03 09:43:48;;;;;;;0.70;0.20;;;26.20;99.90;;;;;;4954461;29;20453;-72
2022/07/03 09:46:16;;;;;;;1.17;0.47;;;26.30;99.90;;;;;;4953917;29;20478;-72
2022/07/03 09:48:43;;;;;;;0.80;0.30;;;26.20;99.90;;;;;;4954154;29;20447;-73
2022/07/03 09:51:17;;;;;;;0.70;0.10;;;26.20;99.90;;;;;;4955077;28;20475;-73
2022/07/03 09:53:58;;;;;;;0.70;0.30;;;26.30;99.90;;;;;;4967969;28;20571;-71
2022/07/03 09:56:27;;;;;;;0.70;0.10;;;;;;;;;;4972878;28;20470;-72
2022/07/03 09:59:10;;;;;;;0.70;0.20;;;26.50;99.90;;;;;;4973422;28;20542;-72
2022/07/03 10:01:39;;;;;;;0.70;0.10;;;26.70;99.90;;;;;;4973625;28;20446;-73
2022/07/03 10:04:16;;;;;;;0.70;0.20;;;26.90;99.90;;;;;;4973535;28;20449;-73
2022/07/03 10:06:55;;;;;;;0.70;0.10;;;27.00;99.90;;;;;;4934807;29;20532;-73
2022/07/03 10:09:26;;;;;;;0.70;0.17;;;27.00;99.90;;;;;;4934718;29;20436;-73
2022/07/03 10:11:55;;;;;;;0.70;0.20;;;27.00;99.90;;;;;;4935418;29;20507;-72
2022/07/03 10:14:26;;;;;;;0.70;0.10;;;26.90;99.90;;;;;;4934891;29;20534;-73
2022/07/03 10:16:55;;;;;;;1.20;0.30;;;27.10;99.90;;;;;;4934474;29;21005;-74
2022/07/03 10:19:26;;;;;;;0.70;0.10;;;27.10;99.90;;;;;;4953311;28;20886;-72
2022/07/03 10:21:56;;;;;;;1.40;0.70;;;27.20;99.90;;;;;;4973613;28;20450;-72
2022/07/03 10:24:27;;;;;;;0.70;0.10;;;27.20;99.90;;;;;;4973379;28;20446;-72
2022/07/03 10:26:56;;;;;;;0.70;0.20;;;27.30;99.90;;;;;;4972961;28;20474;-73
2022/07/03 10:29:25;;;;;;;0.90;0.50;;;27.40;99.90;;;;;;4953957;29;20513;-74
2022/07/03 10:31:57;;;;;;;0.90;0.20;;;27.40;99.90;;;;;;4954023;29;20490;-72
2022/07/03 10:34:27;;;;;;;0.80;0.30;;;27.50;99.90;;;;;;4956095;28;20489;-73
2022/07/03 10:36:59;;;;;;;0.70;0.20;;;27.40;99.90;;;;;;4953491;29;20489;-72
2022/07/03 10:39:38;;;;;;;0.70;0.10;;;27.40;99.90;;;;;;4954170;28;20467;-73
2022/07/03 10:45:06;;;;;;;0.77;0.33;;;27.50;99.90;;;;;;4953566;29;20473;-74
2022/07/03 10:47:44;;;;;;;0.70;0.10;;;27.60;99.90;;;;;;4963062;28;20480;-73
2022/07/03 10:50:13;;;;;;;0.70;0.20;;;27.50;99.90;;;;;;4972977;28;20446;-73
2022/07/03 10:52:42;;;;;;;0.70;0.13;;;27.50;99.90;;;;;;4972860;28;20572;-73
2022/07/03 10:55:13;;;;;;;0.70;0.20;;;27.50;99.90;;;;;;4972453;28;20458;-73
2022/07/03 10:57:43;;;;;;;0.70;0.10;;;27.60;99.90;;;;;;4972350;28;20470;-72
2022/07/03 11:00:17;;;;;;;0.70;0.20;;;27.60;99.90;;;;;;4971946;28;20450;-73
2022/07/03 11:02:47;;;;;;;0.70;0.10;;;27.70;99.90;;;;;;4973281;28;20449;-72
2022/07/03 11:05:37;;;;;;;0.70;0.20;;;27.80;99.90;;;;;;4972909;28;20450;-73
2022/07/03 11:08:07;;;;;;;0.70;0.10;;;28.00;99.90;;;;;;4972052;28;20482;-74
2022/07/03 11:10:41;;;;;;;0.70;0.20;;;28.10;99.90;;;;;;4972999;28;20461;-73
2022/07/03 11:13:16;;;;;;;0.70;0.10;;;28.20;99.90;;;;;;4961903;28;20917;-73
2022/07/03 11:15:46;;;;;;;0.70;0.10;;;28.10;99.90;;;;;;4953122;29;20450;-72
2022/07/03 11:18:35;;;;;;;1.07;0.70;;;28.20;99.90;;;;;;4957348;28;20477;-73
2022/07/03 11:21:31;;;;;;;0.70;0.10;;;28.20;99.90;;;;;;4972576;28;20450;-73
2022/07/03 11:24:37;;;;;;;0.80;0.57;;;28.20;99.90;;;;;;4972436;28;20450;-73
2022/07/03 11:27:34;;;;;;;0.70;0.10;;;28.20;99.90;;;;;;4962276;28;20474;-73
2022/07/03 11:30:03;;;;;;;0.70;0.10;;;28.40;99.90;;;;;;4953563;29;20451;-74
2022/07/03 11:32:50;;;;;;;0.70;0.30;;;28.40;99.90;;;;;;4953297;29;20854;-74
2022/07/03 11:35:43;;;;;;;0.70;0.10;;;28.50;99.90;;;;;;4952877;29;20546;-73
2022/07/03 11:38:11;;;;;;;0.70;0.40;;;28.60;99.90;;;;;;4959716;28;20476;-74
2022/07/03 11:40:42;;;;;;;0.70;0.10;;;28.70;99.90;;;;;;4972700;28;20454;-73
2022/07/03 11:43:12;;;;;;;1.07;0.40;;;;;;;;;;4972666;28;20477;-73
2022/07/03 11:45:42;;;;;;;0.80;0.30;;;28.80;99.90;;;;;;4974002;28;20469;-73
2022/07/03 11:48:12;;;;;;;0.70;0.10;;;28.70;99.90;;;;;;4975460;28;21002;-72
2022/07/03 11:50:42;;;;;;;0.70;0.20;;;28.40;99.90;;;;;;4975861;28;20450;-73
2022/07/03 11:53:24;;;;;;;0.70;0.20;;;28.40;99.90;;;;;;4975290;28;20510;-73
2022/07/03 11:55:55;;;;;;;0.70;0.20;;;28.30;99.90;;;;;;4975233;28;20501;-74
2022/07/03 11:58:25;;;;;;;0.77;0.27;;;28.30;99.90;;;;;;4964164;28;20985;-73
2022/07/03 12:00:53;;;;;;;0.70;0.10;;;28.30;99.90;;;;;;4956033;29;20450;-72
2022/07/03 12:03:24;;;;;;;0.70;0.10;;;28.50;99.90;;;;;;4956027;29;20443;-73
2022/07/03 12:05:53;;;;;;;3.43;0.40;;;28.60;99.90;;;;;;4959781;28;20466;-72
2022/07/03 12:08:29;;;;;;;0.70;0.20;;;28.30;99.90;;;;;;4975013;28;20512;-73
2022/07/03 12:11:04;;;;;;;1.20;0.50;;;28.30;99.90;;;;;;4975471;28;20449;-73
2022/07/03 12:13:33;;;;;;;0.70;0.10;;;;;;;;;;4975306;28;20496;-73
2022/07/03 12:16:08;;;;;;;0.70;0.20;;;28.40;99.90;;;;;;4975011;28;20453;-72
2022/07/03 12:18:47;;;;;;;0.70;0.10;;;28.40;99.90;;;;;;4975047;28;21079;-73
2022/07/03 12:21:16;;;;;;;0.70;0.10;;;28.60;99.90;;;;;;4959739;28;20451;-74
2022/07/03 12:23:45;;;;;;;0.80;0.60;;;28.80;99.90;;;;;;4955907;29;20511;-74
2022/07/03 12:26:13;;;;;;;0.70;0.20;;;28.90;99.90;;;;;;4955423;29;20546;-74
2022/07/03 12:28:42;;;;;;;0.97;0.40;;;28.90;99.90;;;;;;4955609;29;20482;-74
2022/07/03 12:31:11;;;;;;;0.70;0.13;;;28.90;99.90;;;;;;4956067;29;20439;-73
2022/07/03 12:33:40;;;;;;;0.70;0.10;;;29.00;99.90;;;;;;4973666;28;21006;-73
2022/07/03 12:36:09;;;;;;;0.70;0.20;;;29.20;99.90;;;;;;4974551;28;20458;-74
2022/07/03 12:38:39;;;;;;;0.70;0.20;;;29.30;99.90;;;;;;4975071;28;20442;-73
2022/07/03 12:41:14;;;;;;;0.70;0.20;;;29.20;99.90;;;;;;4975735;28;20422;-73
2022/07/03 12:43:47;;;;;;;0.70;0.13;;;29.40;99.90;;;;;;4975584;28;20734;-74
2022/07/03 12:46:23;;;;;;;0.70;0.20;;;29.70;99.90;;;;;;4968460;28;20821;-74
2022/07/03 12:48:52;;;;;;;0.70;0.20;;;29.70;99.90;;;;;;4955560;29;20474;-73
2022/07/03 12:51:40;;;;;;;0.70;0.10;;;30.00;99.90;;;;;;4955520;29;20463;-74
2022/07/03 12:54:09;;;;;;;0.70;0.20;;;30.00;99.90;;;;;;4955540;29;20486;-74
2022/07/03 12:56:37;;;;;;;0.70;0.20;;;30.00;99.90;;;;;;4954331;28;20907;-74
2022/07/03 12:59:17;;;;;;;0.70;0.10;;;30.00;99.90;;;;;;4956883;29;20461;-73
2022/07/03 13:01:46;;;;;;;0.70;0.20;;;30.10;99.90;;;;;;4956471;28;20455;-74
2022/07/03 13:04:17;;;;;;;1.00;0.57;;;30.10;99.90;;;;;;4955450;29;20470;-75
2022/07/03 13:06:46;;;;;;;0.70;0.20;;;30.20;99.90;;;;;;4955182;29;20486;-73
2022/07/03 13:09:14;;;;;;;0.70;0.20;;;30.10;99.90;;;;;;4955292;29;20447;-74
2022/07/03 13:11:42;;;;;;;0.70;0.20;;;30.20;99.90;;;;;;4955780;29;20442;-73
2022/07/03 13:14:13;;;;;;;0.70;0.10;;;30.20;99.90;;;;;;4959876;28;20488;-74
2022/07/03 13:16:44;;;;;;;0.70;0.20;;;30.20;99.90;;;;;;4974286;28;20580;-74
2022/07/03 13:19:14;;;;;;;0.70;0.10;;;30.30;99.90;;;;;;4974520;28;20569;-74